Time;durP1;ratioP1;P1;durP2;ratioP2;P2;SDS_P1;SDS_P2;PMS_P1;PMS_P2;Temp;Humidity;BMP_temperature;BMP_pressure;BME280_temperature;BME280_humidity;BME280_pressure;Samples;Min_cycle;Max_cycle;Signal;HPM_P1;HPM_P2
2023/04/03 00:00:43;;;;;;;2.17;2.00;;;;;;;;;;4978834;28;20345;-81
2023/04/03 00:03:10;;;;;;;2.35;2.00;;;;;;;;;;4972727;28;20046;-80
2023/04/03 00:05:38;;;;;;;2.10;2.00;;;;;;;;;;4974966;28;20042;-81
2023/04/03 00:08:07;;;;;;;2.22;2.03;;;;;;;;;;4973933;28;20396;-84
2023/04/03 00:10:35;;;;;;;1.90;1.80;;;;;;;;;;4978260;28;20055;-82
2023/04/03 00:13:03;;;;;;;2.20;2.00;;;;;;;;;;4973223;28;20055;-82
2023/04/03 00:15:31;;;;;;;1.98;1.88;;;;;;;;;;4977631;28;20483;-82
2023/04/03 00:17:58;;;;;;;1.88;1.77;;;;;;;;;;4974605;28;20409;-81
2023/04/03 00:20:27;;;;;;;1.90;1.80;;;;;;;;;;4972351;28;20050;-83
2023/04/03 00:22:54;;;;;;;1.83;1.73;;;;;;;;;;4970811;28;20069;-82
2023/04/03 00:25:22;;;;;;;1.38;1.27;;;;;;;;;;4974552;28;20097;-81
2023/04/03 00:27:49;;;;;;;1.60;1.50;;;;;;;;;;5289932;23;20038;-78
2023/04/03 00:30:18;;;;;;;1.88;1.40;;;;;;;;;;4988525;28;20053;-78
2023/04/03 00:32:45;;;;;;;2.97;1.83;;;;;;;;;;4986767;28;20121;-78
2023/04/03 00:35:15;;;;;;;1.63;1.52;;;;;;;;;;4970705;28;20051;-78
2023/04/03 00:37:43;;;;;;;2.67;1.55;;;;;;;;;;4968017;28;20058;-77
2023/04/03 00:40:12;;;;;;;1.55;1.45;;;;;;;;;;4948945;28;20114;-77
2023/04/03 00:42:43;;;;;;;1.40;1.30;;;;;;;;;;4962266;28;20046;-77
2023/04/03 00:45:13;;;;;;;1.70;1.60;;;;;;;;;;4949188;28;20082;-77
2023/04/03 00:47:43;;;;;;;1.48;1.40;;;;;;;;;;4962728;28;20050;-77
2023/04/03 00:50:10;;;;;;;1.80;1.70;;;;;;;;;;4966386;28;20126;-77
2023/04/03 00:52:38;;;;;;;1.90;1.80;;;;;;;;;;4959567;28;20047;-77
2023/04/03 00:55:08;;;;;;;1.70;1.60;;;;;;;;;;4948472;28;20054;-77
2023/04/03 00:57:35;;;;;;;2.28;1.50;;;;;;;;;;4965137;28;20070;-78
2023/04/03 01:00:08;;;;;;;2.45;1.70;;;;;;;;;;4944916;28;20039;-78
2023/04/03 01:02:36;;;;;;;1.48;1.38;;;;;;;;;;4943647;28;20520;-78
2023/04/03 01:05:06;;;;;;;1.85;1.65;;;;;;;;;;4947717;28;20131;-78
2023/04/03 01:07:35;;;;;;;1.50;1.40;;;;;;;;;;4962090;28;20062;-78
2023/04/03 01:10:03;;;;;;;1.88;1.77;;;;;;;;;;4969389;28;20424;-78
2023/04/03 01:12:45;;;;;;;2.22;1.83;;;;;;;;;;4949263;28;20046;-78
2023/04/03 01:15:15;;;;;;;2.45;1.95;;;;;;;;;;4948429;28;20657;-78
2023/04/03 01:17:53;;;;;;;1.67;1.58;;;;;;;;;;4960855;28;20129;-78
2023/04/03 01:20:24;;;;;;;1.65;1.60;;;;;;;;;;4951140;28;20043;-78
2023/04/03 01:23:11;;;;;;;1.63;1.52;;;;;;;;;;4945411;28;20043;-78
2023/04/03 01:25:43;;;;;;;1.98;1.88;;;;;;;;;;4947203;28;20042;-78
2023/04/03 01:28:19;;;;;;;1.77;1.67;;;;;;;;;;4950784;28;20066;-78
2023/04/03 01:30:51;;;;;;;1.80;1.70;;;;;;;;;;4967759;28;20579;-78
2023/04/03 01:33:20;;;;;;;1.73;1.63;;;;;;;;;;4946941;28;20755;-77
2023/04/03 01:35:48;;;;;;;2.00;1.67;;;;;;;;;;4947661;28;20046;-78
2023/04/03 01:38:16;;;;;;;1.65;1.55;;;;;;;;;;4948539;28;20520;-78
2023/04/03 01:40:44;;;;;;;1.92;1.83;;;;;;;;;;4946069;28;20054;-78
2023/04/03 01:43:11;;;;;;;1.83;1.73;;;;;;;;;;4947462;28;20519;-79
2023/04/03 01:45:49;;;;;;;2.22;1.90;;;;;;;;;;4961874;28;20046;-79
2023/04/03 01:48:17;;;;;;;2.33;1.90;;;;;;;;;;4948754;28;20073;-78
2023/04/03 01:50:45;;;;;;;1.60;1.50;;;;;;;;;;4963749;28;20046;-78
2023/04/03 01:53:13;;;;;;;1.60;1.50;;;;;;;;;;4945112;28;20050;-78
2023/04/03 01:55:41;;;;;;;1.73;1.63;;;;;;;;;;4946716;28;20051;-78
2023/04/03 01:58:08;;;;;;;1.90;1.80;;;;;;;;;;4947732;28;20701;-78
2023/04/03 02:00:35;;;;;;;2.03;1.80;;;;;;;;;;4945397;28;20042;-78
2023/04/03 02:03:04;;;;;;;1.90;1.80;;;;;;;;;;4946133;28;20039;-78
2023/04/03 02:05:31;;;;;;;2.10;2.00;;;;;;;;;;4945758;28;20066;-78
2023/04/03 02:07:59;;;;;;;1.70;1.60;;;;;;;;;;4951367;28;20039;-78
2023/04/03 02:10:29;;;;;;;2.42;1.80;;;;;;;;;;4954732;28;20061;-78
2023/04/03 02:12:56;;;;;;;3.63;1.80;;;;;;;;;;4951853;28;20050;-78
2023/04/03 02:15:25;;;;;;;2.03;1.67;;;;;;;;;;4948544;28;20051;-79
2023/04/03 02:17:52;;;;;;;1.85;1.75;;;;;;;;;;4961471;28;20066;-78
2023/04/03 02:20:21;;;;;;;2.08;1.95;;;;;;;;;;4966677;28;20101;-78
2023/04/03 02:22:49;;;;;;;2.58;2.10;;;;;;;;;;4948906;28;20046;-78
2023/04/03 02:25:18;;;;;;;2.40;2.15;;;;;;;;;;4953418;28;20117;-78
2023/04/03 02:27:45;;;;;;;2.55;2.25;;;;;;;;;;4964906;28;20043;-78
2023/04/03 02:30:14;;;;;;;1.88;1.77;;;;;;;;;;4949513;28;20043;-79
2023/04/03 02:32:42;;;;;;;3.22;2.35;;;;;;;;;;4947429;28;20058;-78
2023/04/03 02:35:10;;;;;;;1.90;1.80;;;;;;;;;;4951654;28;20053;-78
2023/04/03 02:37:38;;;;;;;2.15;1.95;;;;;;;;;;4945393;28;20058;-78
2023/04/03 02:40:06;;;;;;;2.33;2.00;;;;;;;;;;4962361;28;20055;-78
2023/04/03 02:42:35;;;;;;;1.85;1.75;;;;;;;;;;4949685;28;20054;-78
2023/04/03 02:45:03;;;;;;;1.83;1.73;;;;;;;;;;4949966;28;20058;-78
2023/04/03 02:47:31;;;;;;;2.33;2.10;;;;;;;;;;4965775;28;20509;-78
2023/04/03 02:49:58;;;;;;;2.40;2.30;;;;;;;;;;4950436;28;20057;-78
2023/04/03 02:52:25;;;;;;;2.60;2.40;;;;;;;;;;4963696;28;20054;-78
2023/04/03 02:54:55;;;;;;;3.10;2.30;;;;;;;;;;4948031;28;20043;-78
2023/04/03 02:57:23;;;;;;;2.58;2.38;;;;;;;;;;4969433;28;20138;-79
2023/04/03 02:59:51;;;;;;;2.70;2.35;;;;;;;;;;4966931;28;20493;-78
2023/04/03 03:02:18;;;;;;;2.47;2.28;;;;;;;;;;4947857;28;20042;-78
2023/04/03 03:04:45;;;;;;;3.17;2.45;;;;;;;;;;4969164;28;20130;-79
2023/04/03 03:07:13;;;;;;;4.13;2.70;;;;;;;;;;4963736;28;20408;-78
2023/04/03 03:09:41;;;;;;;2.75;2.55;;;;;;;;;;4945128;28;20066;-79
2023/04/03 03:12:08;;;;;;;2.85;2.50;;;;;;;;;;4968498;28;20866;-78
2023/04/03 03:14:35;;;;;;;5.82;3.65;;;;;;;;;;4973307;28;20125;-78
2023/04/03 03:17:03;;;;;;;2.55;2.35;;;;;;;;;;4961809;28;20693;-78
2023/04/03 03:19:30;;;;;;;1.98;1.88;;;;;;;;;;4942844;28;20051;-78
2023/04/03 03:21:57;;;;;;;2.50;2.40;;;;;;;;;;4960542;28;20157;-78
2023/04/03 03:24:25;;;;;;;2.60;2.40;;;;;;;;;;4942202;28;20051;-78
2023/04/03 03:26:53;;;;;;;2.78;2.50;;;;;;;;;;4941635;28;20050;-78
2023/04/03 03:29:21;;;;;;;2.53;2.35;;;;;;;;;;4944548;28;20038;-77
2023/04/03 03:31:48;;;;;;;3.75;2.30;;;;;;;;;;4944275;28;20046;-77
2023/04/03 03:34:16;;;;;;;2.20;2.10;;;;;;;;;;4944007;28;20137;-78
2023/04/03 03:36:43;;;;;;;2.85;2.50;;;;;;;;;;4960599;28;20047;-79
2023/04/03 03:39:11;;;;;;;2.50;2.33;;;;;;;;;;4949628;28;20140;-78
2023/04/03 03:41:38;;;;;;;2.70;2.50;;;;;;;;;;4941501;28;20634;-79
2023/04/03 03:44:06;;;;;;;2.83;2.63;;;;;;;;;;4948409;28;20476;-78
2023/04/03 03:46:34;;;;;;;2.78;2.58;;;;;;;;;;4953375;28;20051;-79
2023/04/03 03:49:01;;;;;;;2.70;2.50;;;;;;;;;;4953591;28;20051;-79
2023/04/03 03:51:29;;;;;;;3.47;3.17;;;;;;;;;;4950792;28;20108;-78
2023/04/03 03:53:57;;;;;;;3.78;3.47;;;;;;;;;;4950623;28;20149;-79
2023/04/03 03:56:25;;;;;;;3.78;3.47;;;;;;;;;;4965811;28;20061;-79
2023/04/03 03:58:52;;;;;;;4.30;3.25;;;;;;;;;;4957449;28;20058;-78
2023/04/03 04:01:22;;;;;;;5.20;3.05;;;;;;;;;;4947442;28;20043;-78
2023/04/03 04:03:49;;;;;;;4.65;2.75;;;;;;;;;;4953602;28;20047;-79
2023/04/03 04:06:21;;;;;;;6.50;3.45;;;;;;;;;;4948623;28;20409;-79
2023/04/03 04:08:49;;;;;;;3.65;2.60;;;;;;;;;;4946859;28;20146;-79
2023/04/03 04:11:17;;;;;;;9.40;2.83;;;;;;;;;;4971590;28;20138;-78
2023/04/03 04:13:46;;;;;;;3.15;2.85;;;;;;;;;;4945420;28;20062;-79
2023/04/03 04:16:14;;;;;;;4.70;3.13;;;;;;;;;;4947466;28;20047;-78
2023/04/03 04:18:42;;;;;;;3.50;3.00;;;;;;;;;;4946882;28;20042;-78
2023/04/03 04:21:10;;;;;;;5.43;3.58;;;;;;;;;;4946809;28;20142;-78
2023/04/03 04:23:39;;;;;;;3.40;3.10;;;;;;;;;;4946561;28;20086;-78
2023/04/03 04:26:06;;;;;;;2.95;2.65;;;;;;;;;;4966750;28;20046;-79
2023/04/03 04:28:36;;;;;;;3.15;2.85;;;;;;;;;;4950649;28;20042;-78
2023/04/03 04:31:07;;;;;;;3.13;2.92;;;;;;;;;;4947959;28;20046;-79
2023/04/03 04:33:34;;;;;;;2.72;2.53;;;;;;;;;;4950630;28;20050;-78
2023/04/03 04:36:08;;;;;;;4.50;3.40;;;;;;;;;;4948271;28;20050;-79
2023/04/03 04:38:36;;;;;;;4.80;3.80;;;;;;;;;;4951517;28;20065;-78
2023/04/03 04:41:04;;;;;;;3.78;3.38;;;;;;;;;;4946976;28;20489;-78
2023/04/03 04:43:32;;;;;;;3.95;3.65;;;;;;;;;;4956395;28;20097;-78
2023/04/03 04:46:02;;;;;;;5.63;3.40;;;;;;;;;;4955116;28;20133;-79
2023/04/03 04:48:33;;;;;;;3.75;3.45;;;;;;;;;;4957060;28;20039;-79
2023/04/03 04:51:01;;;;;;;4.97;3.33;;;;;;;;;;4953632;28;20049;-79
2023/04/03 04:53:29;;;;;;;4.15;3.40;;;;;;;;;;4950143;28;20073;-79
2023/04/03 04:55:57;;;;;;;5.22;3.90;;;;;;;;;;4969591;28;20034;-79
2023/04/03 04:58:25;;;;;;;4.78;3.75;;;;;;;;;;4950527;28;20046;-78
2023/04/03 05:01:03;;;;;;;4.88;4.30;;;;;;;;;;4950608;28;20046;-78
2023/04/03 05:03:32;;;;;;;5.35;4.82;;;;;;;;;;4950091;28;20047;-79
2023/04/03 05:05:59;;;;;;;3.55;2.85;;;;;;;;;;4951761;28;20039;-78
2023/04/03 05:08:30;;;;;;;2.85;2.65;;;;;;;;;;4951005;28;20151;-79
2023/04/03 05:10:58;;;;;;;3.40;3.10;;;;;;;;;;4950363;28;20042;-79
2023/04/03 05:13:27;;;;;;;4.45;3.75;;;;;;;;;;4951709;28;20133;-78
2023/04/03 05:15:56;;;;;;;4.55;3.55;;;;;;;;;;4942399;28;20042;-79
2023/04/03 05:18:24;;;;;;;3.53;3.17;;;;;;;;;;4935589;28;20046;-78
2023/04/03 05:20:54;;;;;;;2.90;2.60;;;;;;;;;;4940705;28;20042;-79
2023/04/03 05:23:24;;;;;;;4.07;3.00;;;;;;;;;;4950615;28;20054;-78
2023/04/03 05:25:51;;;;;;;4.20;3.40;;;;;;;;;;4958676;28;20089;-79
2023/04/03 05:28:20;;;;;;;4.68;3.08;;;;;;;;;;4933036;28;20070;-79
2023/04/03 05:30:54;;;;;;;3.80;3.30;;;;;;;;;;4972194;28;20513;-79
2023/04/03 05:33:21;;;;;;;3.85;3.50;;;;;;;;;;4949515;28;20197;-78
2023/04/03 05:35:52;;;;;;;3.15;2.95;;;;;;;;;;4949179;28;20042;-78
2023/04/03 05:38:25;;;;;;;4.38;3.00;;;;;;;;;;4961939;28;20069;-79
2023/04/03 05:40:54;;;;;;;3.50;3.20;;;;;;;;;;4951530;28;20043;-79
2023/04/03 05:43:21;;;;;;;6.20;2.95;;;;;;;;;;4955113;28;20106;-79
2023/04/03 05:45:51;;;;;;;3.15;2.90;;;;;;;;;;4956812;28;20073;-76
2023/04/03 05:48:19;;;;;;;2.90;2.58;;;;;;;;;;4966747;28;20054;-77
2023/04/03 05:50:47;;;;;;;4.47;2.80;;;;;;;;;;4970121;28;20058;-77
2023/04/03 05:53:28;;;;;;;3.58;3.22;;;;;;;;;;4953176;28;20049;-77
2023/04/03 05:56:01;;;;;;;3.95;3.42;;;;;;;;;;4973080;28;20137;-77
2023/04/03 05:58:31;;;;;;;2.80;2.60;;;;;;;;;;4955928;28;20054;-77
2023/04/03 06:00:59;;;;;;;4.55;2.95;;;;;;;;;;4973678;28;20310;-77
2023/04/03 06:03:27;;;;;;;3.72;3.17;;;;;;;;;;4963712;28;20061;-77
2023/04/03 06:05:55;;;;;;;3.55;3.22;;;;;;;;;;4968990;28;20365;-77
2023/04/03 06:08:24;;;;;;;3.97;3.13;;;;;;;;;;4954164;28;20043;-77
2023/04/03 06:10:52;;;;;;;5.75;3.00;;;;;;;;;;4949959;28;20046;-79
2023/04/03 06:13:20;;;;;;;3.50;3.13;;;;;;;;;;4963778;28;20130;-79
2023/04/03 06:15:48;;;;;;;4.30;3.10;;;;;;;;;;4947902;28;20127;-79
2023/04/03 06:18:16;;;;;;;3.70;3.40;;;;;;;;;;4949815;28;20055;-78
2023/04/03 06:20:46;;;;;;;3.50;3.20;;;;;;;;;;4950943;28;20111;-79
2023/04/03 06:23:17;;;;;;;3.40;3.10;;;;;;;;;;4949785;28;20047;-78
2023/04/03 06:25:44;;;;;;;3.00;2.67;;;;;;;;;;4950272;28;20042;-78
2023/04/03 06:28:12;;;;;;;3.35;2.92;;;;;;;;;;5027533;23;20109;-82
2023/04/03 06:30:39;;;;;;;3.15;2.95;;;;;;;;;;4944868;28;20051;-84
2023/04/03 06:33:07;;;;;;;4.25;3.78;;;;;;;;;;4979983;28;20066;-83
2023/04/03 06:35:35;;;;;;;4.47;3.05;;;;;;;;;;4987320;28;20062;-83
2023/04/03 06:38:07;;;;;;;4.30;3.30;;;;;;;;;;4981330;28;20130;-83
2023/04/03 06:40:35;;;;;;;3.92;3.08;;;;;;;;;;4958538;28;20054;-84
2023/04/03 06:43:03;;;;;;;3.78;2.85;;;;;;;;;;4975015;28;20519;-81
2023/04/03 06:45:30;;;;;;;4.07;3.60;;;;;;;;;;4975299;28;20138;-83
2023/04/03 06:48:01;;;;;;;3.13;2.63;;;;;;;;;;4959574;28;20098;-84
2023/04/03 06:50:28;;;;;;;2.92;2.63;;;;;;;;;;4964369;28;20050;-84
2023/04/03 06:52:55;;;;;;;3.13;2.83;;;;;;;;;;4977966;28;20047;-86
2023/04/03 06:55:23;;;;;;;7.93;7.13;;;;;;;;;;4987329;28;20102;-83
2023/04/03 06:57:50;;;;;;;5.65;5.18;;;;;;;;;;4992996;28;20050;-83
2023/04/03 07:00:18;;;;;;;3.90;2.80;;;;;;;;;;4979748;28;20102;-82
2023/04/03 07:02:46;;;;;;;6.10;3.30;;;;;;;;;;4977870;28;20417;-83
2023/04/03 07:05:13;;;;;;;3.40;2.90;;;;;;;;;;4978026;28;20049;-83
2023/04/03 07:07:41;;;;;;;3.08;2.78;;;;;;;;;;4976666;28;20057;-83
2023/04/03 07:10:09;;;;;;;3.20;2.90;;;;;;;;;;4980716;28;20081;-84
2023/04/03 07:12:40;;;;;;;15.48;9.85;;;;;;;;;;4973852;28;20079;-84
2023/04/03 07:15:08;;;;;;;11.48;2.97;;;;;;;;;;4973944;28;20047;-84
2023/04/03 07:17:36;;;;;;;3.35;2.65;;;;;;;;;;4958630;28;20058;-84
2023/04/03 07:20:04;;;;;;;98.07;58.85;;;;;;;;;;4956117;28;20043;-83
2023/04/03 07:22:31;;;;;;;4.28;2.97;;;;;;;;;;4970994;28;20050;-84
2023/04/03 07:25:02;;;;;;;8.07;7.45;;;;;;;;;;4977127;28;20054;-83
2023/04/03 07:27:29;;;;;;;2.97;2.67;;;;;;;;;;4975338;28;20058;-83
2023/04/03 07:29:57;;;;;;;3.22;2.50;;;;;;;;;;4974386;28;20043;-85
2023/04/03 07:32:25;;;;;;;2.90;2.60;;;;;;;;;;4973431;28;20424;-85
2023/04/03 07:34:52;;;;;;;7.35;3.08;;;;;;;;;;4981791;28;20039;-84
2023/04/03 07:37:22;;;;;;;3.83;2.20;;;;;;;;;;4958368;28;20106;-84
2023/04/03 07:39:49;;;;;;;3.28;2.70;;;;;;;;;;4968122;28;20050;-83
2023/04/03 07:42:16;;;;;;;3.78;2.78;;;;;;;;;;4971946;28;20062;-84
2023/04/03 07:44:44;;;;;;;2.88;2.28;;;;;;;;;;4973681;28;20066;-82
2023/04/03 07:47:13;;;;;;;3.53;2.42;;;;;;;;;;4986474;28;20368;-84
2023/04/03 07:49:44;;;;;;;2.80;2.47;;;;;;;;;;4975515;28;21681;-84
2023/04/03 07:52:12;;;;;;;33.28;29.88;;;;;;;;;;4972554;28;20306;-84
2023/04/03 07:54:40;;;;;;;32.80;29.73;;;;;;;;;;4979705;28;20054;-82
2023/04/03 07:57:07;;;;;;;9.18;8.52;;;;;;;;;;4969483;28;20047;-85
2023/04/03 07:59:35;;;;;;;4.07;1.90;;;;;;;;;;4972362;28;20106;-84
2023/04/03 08:02:08;;;;;;;3.03;2.75;;;;;;;;;;4982007;28;20067;-85
2023/04/03 08:04:36;;;;;;;3.15;1.63;;;;;;;;;;4986491;28;20058;-85
2023/04/03 08:07:03;;;;;;;4.93;1.70;;;;;;;;;;4984958;28;20050;-83
2023/04/03 08:09:31;;;;;;;12.77;11.60;;;;;;;;;;4972405;28;20047;-83
2023/04/03 08:12:00;;;;;;;41.53;37.38;;;;;;;;;;4972067;28;20505;-86
2023/04/03 08:14:30;;;;;;;1.98;1.80;;;;;;;;;;4980536;28;20078;-82
2023/04/03 08:16:58;;;;;;;15.90;13.65;;;;;;;;;;4976364;28;20051;-84
2023/04/03 08:19:25;;;;;;;1.80;1.70;;;;;;;;;;4969325;28;20063;-83
2023/04/03 08:21:54;;;;;;;1.65;1.55;;;;;;;;;;4966654;28;20079;-84
2023/04/03 08:24:22;;;;;;;29.70;27.63;;;;;;;;;;4968343;28;20059;-82
2023/04/03 08:26:49;;;;;;;30.58;28.48;;;;;;;;;;4970795;28;20070;-82
2023/04/03 08:29:19;;;;;;;7.70;7.20;;;;;;;;;;4974207;28;20519;-81
2023/04/03 08:31:47;;;;;;;159.35;148.57;;;;;;;;;;4976025;28;20046;-84
2023/04/03 08:34:14;;;;;;;4.18;2.88;;;;;;;;;;4984847;28;20120;-83
2023/04/03 08:36:43;;;;;;;107.00;100.18;;;;;;;;;;4970754;28;20050;-83
2023/04/03 08:39:16;;;;;;;6.78;6.32;;;;;;;;;;4988395;28;20062;-81
2023/04/03 08:41:46;;;;;;;18.20;17.00;;;;;;;;;;4978756;28;20047;-83
2023/04/03 08:44:32;;;;;;;9.20;8.50;;;;;;;;;;4979494;28;20129;-83
2023/04/03 08:47:02;;;;;;;31.73;29.98;;;;;;;;;;4974883;28;20046;-83
2023/04/03 08:49:50;;;;;;;12.10;11.32;;;;;;;;;;4972352;28;20256;-84
2023/04/03 08:52:20;;;;;;;56.55;51.60;;;;;;;;;;4980293;28;20108;-83
2023/04/03 08:54:53;;;;;;;4.30;3.95;;;;;;;;;;4985225;28;20081;-83
2023/04/03 08:57:24;;;;;;;42.42;39.38;;;;;;;;;;4985961;28;20066;-83
2023/04/03 08:59:52;;;;;;;21.27;19.85;;;;;;;;;;4981700;28;20085;-83
2023/04/03 09:02:30;;;;;;;81.97;76.80;;;;;;;;;;4984967;28;20041;-82
2023/04/03 09:04:57;;;;;;;37.00;34.60;;;;;;;;;;4973416;28;20046;-82
2023/04/03 09:07:37;;;;;;;26.02;24.63;;;;;;;;;;4982552;28;20072;-83
2023/04/03 09:10:05;;;;;;;164.88;154.35;;;;;;;;;;4979716;28;20043;-83
2023/04/03 09:12:39;;;;;;;9.25;8.70;;;;;;;;;;4978731;28;20046;-83
2023/04/03 09:15:11;;;;;;;17.45;16.33;;;;;;;;;;4979260;28;20048;-85
2023/04/03 09:17:51;;;;;;;136.73;126.50;;;;;;;;;;4984777;28;20050;-86
2023/04/03 09:20:38;;;;;;;150.95;141.13;;;;;;;;;;4964602;28;20066;-83
2023/04/03 09:23:18;;;;;;;287.08;261.05;;;;;;;;;;4985954;28;20046;-83
2023/04/03 09:25:48;;;;;;;;;;;;;;;;;;4984803;28;20049;-84
2023/04/03 09:28:20;;;;;;;65.57;61.33;;;;;;;;;;4995185;28;19920;-83
2023/04/03 09:31:11;;;;;;;154.80;143.27;;;;;;;;;;4989282;28;20154;-85
2023/04/03 09:33:40;;;;;;;8.20;7.53;;;;;;;;;;4986213;28;20197;-85
2023/04/03 09:36:11;;;;;;;2.92;2.72;;;;;;;;;;4983318;28;20055;-84
2023/04/03 09:38:41;;;;;;;140.68;128.65;;;;;;;;;;4982316;28;20133;-84
2023/04/03 09:41:16;;;;;;;113.55;106.35;;;;;;;;;;4974613;28;20050;-81
2023/04/03 09:43:52;;;;;;;149.50;139.10;;;;;;;;;;4985114;28;20057;-87
2023/04/03 09:46:32;;;;;;;165.50;155.27;;;;;;;;;;4965996;28;20049;-84
2023/04/03 09:49:02;;;;;;;54.85;51.70;;;;;;;;;;4968386;28;20042;-82
2023/04/03 09:51:40;;;;;;;181.02;168.43;;;;;;;;;;4971892;28;20109;-86
2023/04/03 09:54:45;;;;;;;31.45;29.52;;;;;;;;;;4983254;28;20035;-82
2023/04/03 09:57:36;;;;;;;194.30;181.25;;;;;;;;;;4965793;28;20559;-83
2023/04/03 10:00:13;;;;;;;91.03;84.50;;;;;;;;;;4983382;28;20069;-84
2023/04/03 10:02:42;;;;;;;14.73;13.80;;;;;;;;;;4982096;28;20096;-84
2023/04/03 10:05:28;;;;;;;88.28;82.90;;;;;;;;;;4974653;28;20085;-85
2023/04/03 10:08:27;;;;;;;22.83;21.27;;;;;;;;;;4951131;28;20054;-85
2023/04/03 10:11:09;;;;;;;261.33;237.25;;;;;;;;;;4937769;28;20047;-84
2023/04/03 10:13:50;;;;;;;139.52;126.55;;;;;;;;;;4961483;28;20050;-85
2023/04/03 10:16:24;;;;;;;147.50;133.10;;;;;;;;;;4963727;28;20054;-86
2023/04/03 10:19:03;;;;;;;55.35;51.03;;;;;;;;;;4964924;28;20457;-86
2023/04/03 10:21:50;;;;;;;57.03;51.35;;;;;;;;;;4983774;28;20456;-83
2023/04/03 10:24:20;;;;;;;46.33;42.85;;;;;;;;;;4984669;28;20043;-85
2023/04/03 10:26:58;;;;;;;15.88;14.80;;;;;;;;;;4989198;28;20059;-84
2023/04/03 10:29:44;;;;;;;112.25;105.03;;;;;;;;;;4983231;28;20046;-84
2023/04/03 10:32:33;;;;;;;206.10;190.82;;;;;;;;;;4981987;28;20500;-85
2023/04/03 10:35:15;;;;;;;63.03;58.50;;;;;;;;;;4968800;28;20053;-83
2023/04/03 10:38:00;;;;;;;251.25;231.73;;;;;;;;;;4952823;28;20058;-84
2023/04/03 10:40:38;;;;;;;55.85;52.40;;;;;;;;;;4973019;28;20099;-83
2023/04/03 10:43:22;;;;;;;10.48;9.45;;;;;;;;;;4979093;28;20105;-85
2023/04/03 10:46:08;;;;;;;83.28;77.55;;;;;;;;;;4976289;28;20044;-84
2023/04/03 10:48:54;;;;;;;3.78;3.47;;;;;;;;;;4974814;28;20144;-84
2023/04/03 10:51:26;;;;;;;68.35;63.97;;;;;;;;;;4984149;28;20038;-83
2023/04/03 10:54:10;;;;;;;201.80;188.68;;;;;;;;;;4982513;28;20126;-85
2023/04/03 10:56:52;;;;;;;80.65;74.40;;;;;;;;;;4957536;28;20043;-86
2023/04/03 10:59:54;;;;;;;35.33;32.88;;;;;;;;;;4973816;28;20172;-85
2023/04/03 11:02:49;;;;;;;70.43;65.47;;;;;;;;;;4980479;28;20050;-86
2023/04/03 11:05:36;;;;;;;151.88;141.60;;;;;;;;;;4973916;28;20302;-84
2023/04/03 11:08:14;;;;;;;13.23;12.27;;;;;;;;;;4972245;28;20062;-84
2023/04/03 11:10:43;;;;;;;211.15;197.48;;;;;;;;;;4959904;28;20126;-84
2023/04/03 11:13:39;;;;;;;9.77;9.02;;;;;;;;;;4951693;28;20046;-85
2023/04/03 11:16:21;;;;;;;83.57;78.22;;;;;;;;;;4956136;28;20077;-85
2023/04/03 11:18:55;;;;;;;35.60;32.65;;;;;;;;;;4956327;28;20051;-85
2023/04/03 11:22:09;;;;;;;53.28;48.60;;;;;;;;;;4962608;28;20517;-85
2023/04/03 11:25:15;;;;;;;114.40;107.47;;;;;;;;;;4969209;28;20062;-84
2023/04/03 11:27:45;;;;;;;114.38;106.13;;;;;;;;;;4938191;28;20066;-85
2023/04/03 11:30:23;;;;;;;38.63;35.63;;;;;;;;;;4977408;28;20130;-84
2023/04/03 11:32:53;;;;;;;215.05;200.27;;;;;;;;;;4980368;28;20079;-83
2023/04/03 11:35:28;;;;;;;33.88;31.73;;;;;;;;;;4978082;28;20051;-85
2023/04/03 11:42:22;;;;;;;5.93;5.43;;;;;;;;;;4894185;29;20151;-83
2023/04/03 11:44:50;;;;;;;202.35;181.45;;;;;;;;;;4911112;29;20080;-87
2023/04/03 11:47:36;;;;;;;25.60;22.85;;;;;;;;;;4908330;29;20395;-90
2023/04/03 11:50:30;;;;;;;24.67;23.13;;;;;;;;;;4909891;29;20426;-83
2023/04/03 11:52:57;;;;;;;2.22;2.13;;;;;;;;;;4917373;29;20066;-85
2023/04/03 11:55:31;;;;;;;17.98;16.80;;;;;;;;;;4918097;29;20540;-85
2023/04/03 11:58:13;;;;;;;12.20;11.48;;;;;;;;;;4914113;29;20552;-84
2023/04/03 12:00:54;;;;;;;3.83;3.58;;;;;;;;;;4918317;29;20129;-85
2023/04/03 12:03:50;;;;;;;163.10;152.48;;;;;;;;;;4907173;29;20123;-85
2023/04/03 12:06:18;;;;;;;18.05;16.75;;;;;;;;;;4899829;29;20179;-85
2023/04/03 12:08:53;;;;;;;28.42;26.40;;;;;;;;;;4904715;29;20494;-85
2023/04/03 12:11:25;;;;;;;19.33;17.77;;;;;;;;;;4925459;29;20640;-83
2023/04/03 12:13:56;;;;;;;3.65;3.22;;;;;;;;;;4910243;29;20056;-87
2023/04/03 12:16:29;;;;;;;22.83;21.42;;;;;;;;;;4927367;29;20052;-86
2023/04/03 12:19:03;;;;;;;5.28;4.88;;;;;;;;;;4985327;28;20421;-82
2023/04/03 12:21:46;;;;;;;22.52;21.08;;;;;;;;;;4990525;28;20050;-86
2023/04/03 12:24:19;;;;;;;13.90;13.05;;;;;;;;;;4976806;28;20061;-84
2023/04/03 12:27:04;;;;;;;96.82;90.70;;;;;;;;;;5048166;23;20027;-79
2023/04/03 12:29:35;;;;;;;20.35;18.80;;;;;;;;;;4951680;28;20157;-78
2023/04/03 12:32:21;;;;;;;449.40;402.27;;;;;;;;;;4954478;28;20512;-79
2023/04/03 12:34:58;;;;;;;54.13;50.28;;;;;;;;;;4923699;29;20486;-80
2023/04/03 12:37:47;;;;;;;54.75;51.45;;;;;;;;;;4940226;29;20134;-78
2023/04/03 12:40:31;;;;;;;37.25;34.17;;;;;;;;;;4938214;28;20147;-79
2023/04/03 12:43:13;;;;;;;12.73;11.77;;;;;;;;;;4940546;28;20050;-79
2023/04/03 12:45:46;;;;;;;256.48;235.00;;;;;;;;;;4942663;28;20043;-79
2023/04/03 12:48:18;;;;;;;94.07;88.10;;;;;;;;;;4923193;29;20374;-80
2023/04/03 12:50:45;;;;;;;;;;;;;;;;;;4941919;28;20040;-79
2023/04/03 12:53:15;;;;;;;48.05;44.65;;;;;;;;;;4938038;29;19926;-78
2023/04/03 12:55:42;;;;;;;197.68;174.02;;;;;;;;;;4940707;28;20569;-78
2023/04/03 12:58:17;;;;;;;30.17;27.80;;;;;;;;;;4943330;29;20051;-77
2023/04/03 13:00:44;;;;;;;6.32;5.78;;;;;;;;;;4938558;28;20747;-78
2023/04/03 13:03:27;;;;;;;12.48;11.82;;;;;;;;;;4941861;29;20047;-79
2023/04/03 13:05:57;;;;;;;25.00;23.40;;;;;;;;;;4940492;28;20051;-79
2023/04/03 13:08:25;;;;;;;135.00;124.35;;;;;;;;;;4940977;29;20058;-78
2023/04/03 13:10:55;;;;;;;117.30;107.10;;;;;;;;;;4920718;29;20830;-78
2023/04/03 13:13:23;;;;;;;41.35;38.78;;;;;;;;;;4939291;28;20133;-77
2023/04/03 13:15:52;;;;;;;31.52;28.98;;;;;;;;;;4939938;28;20056;-78
2023/04/03 13:18:22;;;;;;;48.97;45.47;;;;;;;;;;4926655;29;20240;-79
2023/04/03 13:20:50;;;;;;;8.02;7.28;;;;;;;;;;4937417;28;20071;-79
2023/04/03 13:23:20;;;;;;;93.93;88.22;;;;;;;;;;4929119;28;20685;-79
2023/04/03 13:25:48;;;;;;;240.20;217.88;;;;;;;;;;4934971;28;20051;-78
2023/04/03 13:28:18;;;;;;;58.55;54.88;;;;;;;;;;4941180;29;20062;-77
2023/04/03 13:31:16;;;;;;;28.45;26.70;;;;;;;;;;4944727;28;20471;-76
2023/04/03 13:33:54;;;;;;;117.53;110.13;;;;;;;;;;4917949;28;20529;-77
2023/04/03 13:36:22;;;;;;;32.40;30.33;;;;;;;;;;4948145;28;20059;-77
2023/04/03 13:39:00;;;;;;;18.08;16.95;;;;;;;;;;4930445;28;20051;-77
2023/04/03 13:41:30;;;;;;;23.73;21.98;;;;;;;;;;4947365;29;20083;-78
2023/04/03 13:44:15;;;;;;;29.50;27.33;;;;;;;;;;4947051;28;20098;-78
2023/04/03 13:46:42;;;;;;;9.00;8.23;;;;;;;;;;4947544;29;20055;-78
2023/04/03 13:49:20;;;;;;;72.68;66.70;;;;;;;;;;4949626;28;20473;-78
2023/04/03 13:51:48;;;;;;;35.30;32.33;;;;;;;;;;4947924;28;20044;-78
2023/04/03 13:54:33;;;;;;;5.53;4.97;;;;;;;;;;4943296;28;20054;-78
2023/04/03 13:57:01;;;;;;;163.23;151.68;;;;;;;;;;4941283;29;20510;-78
2023/04/03 13:59:33;;;;;;;223.90;201.48;;;;;;;;;;4940069;28;20552;-77
2023/04/03 14:02:00;;;;;;;;;;;;;;;;;;4916643;29;20539;-78
2023/04/03 14:04:29;;;;;;;146.15;133.05;;;;;;;;;;4940222;28;19930;-78
2023/04/03 14:06:57;;;;;;;5.30;4.90;;;;;;;;;;4948094;29;20055;-77
2023/04/03 14:09:26;;;;;;;19.65;18.27;;;;;;;;;;4946957;29;20404;-77
2023/04/03 14:11:56;;;;;;;5.80;5.50;;;;;;;;;;4948094;29;20047;-78
2023/04/03 14:14:25;;;;;;;14.70;13.77;;;;;;;;;;4940784;28;20047;-76
2023/04/03 14:16:54;;;;;;;112.13;104.93;;;;;;;;;;4947566;29;20047;-77
2023/04/03 14:19:26;;;;;;;18.48;17.25;;;;;;;;;;4948233;28;20044;-77
2023/04/03 14:21:55;;;;;;;23.88;22.10;;;;;;;;;;4946535;28;20061;-77
2023/04/03 14:24:23;;;;;;;114.47;106.72;;;;;;;;;;4946836;28;20207;-77
2023/04/03 14:26:51;;;;;;;6.15;5.65;;;;;;;;;;4946846;29;20449;-77
2023/04/03 14:29:21;;;;;;;171.23;157.43;;;;;;;;;;4947316;28;20553;-77
2023/04/03 14:31:49;;;;;;;167.77;155.38;;;;;;;;;;4946162;29;20051;-77
2023/04/03 14:34:24;;;;;;;65.82;60.90;;;;;;;;;;4933172;28;20501;-77
2023/04/03 14:36:52;;;;;;;88.88;82.88;;;;;;;;;;4938231;29;20311;-76
2023/04/03 14:39:20;;;;;;;67.00;62.85;;;;;;;;;;4921375;28;20468;-77
2023/04/03 14:41:47;;;;;;;10.93;10.23;;;;;;;;;;4934669;29;20051;-77
2023/04/03 14:44:16;;;;;;;55.25;51.60;;;;;;;;;;4937388;28;20047;-77
2023/04/03 14:46:44;;;;;;;43.22;40.30;;;;;;;;;;4942422;29;20130;-76
2023/04/03 14:49:25;;;;;;;22.33;20.77;;;;;;;;;;4936315;28;20083;-76
2023/04/03 14:51:52;;;;;;;115.80;108.53;;;;;;;;;;4930621;29;20102;-79
2023/04/03 14:54:25;;;;;;;3.58;3.35;;;;;;;;;;4944036;28;20055;-76
2023/04/03 14:56:52;;;;;;;20.55;18.67;;;;;;;;;;4933769;29;20051;-78
2023/04/03 14:59:22;;;;;;;9.43;8.73;;;;;;;;;;4940246;28;20577;-76
2023/04/03 15:01:50;;;;;;;5.40;5.05;;;;;;;;;;4932655;29;20126;-77